Time;durP1;ratioP1;P1;durP2;ratioP2;P2;SDS_P1;SDS_P2;PMS_P1;PMS_P2;Temp;Humidity;BMP_temperature;BMP_pressure;BME280_temperature;BME280_humidity;BME280_pressure;Samples;Min_cycle;Max_cycle;Signal;HPM_P1;HPM_P2
2023/07/03 00:00:58;;;;;;;;;;;;;;;8.68;49.54;95118.72;5021240;28;20469;-68
2023/07/03 00:03:23;;;;;;;;;;;;;;;8.69;50.26;95123.03;5020719;28;19955;-68
2023/07/03 00:05:49;;;;;;;;;;;;;;;8.69;49.89;95129.16;5002274;28;19927;-67
2023/07/03 00:08:14;;;;;;;;;;;;;;;8.54;49.95;95117.69;5003250;28;20617;-68
2023/07/03 00:10:40;;;;;;;;;;;;;;;8.30;50.08;95124.81;5016753;28;19952;-68
2023/07/03 00:13:05;;;;;;;;;;;;;;;8.25;50.34;95130.63;5016120;28;20398;-67
2023/07/03 00:15:30;;;;;;;;;;;;;;;8.79;48.84;95125.44;5018844;28;19963;-67
2023/07/03 00:17:56;;;;;;;;;;;;;;;8.65;49.73;95124.38;5003096;28;19937;-68
2023/07/03 00:20:21;;;;;;;;;;;;;;;8.72;49.57;95124.50;5002675;28;19949;-68
2023/07/03 00:22:47;;;;;;;;;;;;;;;8.89;48.40;95136.66;5018714;28;19958;-67
2023/07/03 00:25:13;;;;;;;;;;;;;;;8.56;49.83;95137.72;5003562;28;19920;-68
2023/07/03 00:27:38;;;;;;;;;;;;;;;8.47;49.55;95133.47;5020547;28;20492;-68
2023/07/03 00:30:03;;;;;;;;;;;;;;;8.47;50.13;95130.81;5020337;28;20571;-69
2023/07/03 00:32:29;;;;;;;;;;;;;;;8.38;49.48;95135.38;5019788;28;19913;-68
2023/07/03 00:34:54;;;;;;;;;;;;;;;8.37;50.05;95124.94;5020628;28;19945;-68
2023/07/03 00:37:21;;;;;;;;;;;;;;;8.51;48.75;95116.22;5001929;28;19933;-68
2023/07/03 00:39:46;;;;;;;;;;;;;;;8.73;48.62;95129.63;5020048;28;19969;-68
2023/07/03 00:42:11;;;;;;;;;;;;;;;8.20;50.13;95127.69;5020541;28;19956;-67
2023/07/03 00:44:37;;;;;;;;;;;;;;;8.35;49.60;95121.59;5019648;28;19939;-68
2023/07/03 00:47:03;;;;;;;;;;;;;;;8.61;49.09;95125.75;5002136;28;19950;-67
2023/07/03 00:49:29;;;;;;;;;;;;;;;8.03;50.62;95130.41;4991073;28;19942;-67
2023/07/03 00:51:54;;;;;;;;;;;;;;;8.38;49.41;95121.25;5001879;28;20324;-67
2023/07/03 00:54:20;;;;;;;;;;;;;;;7.97;50.25;95131.13;5020358;28;20017;-67
2023/07/03 00:56:45;;;;;;;;;;;;;;;8.60;49.97;95110.84;5019906;28;20094;-67
2023/07/03 00:59:10;;;;;;;;;;;;;;;8.95;48.45;95106.72;5001776;28;19957;-67
2023/07/03 01:01:35;;;;;;;;;;;;;;;8.46;49.28;95126.50;5000436;23;19965;-68
2023/07/03 01:04:03;;;;;;;;;;;;;;;8.15;50.08;95116.75;4997271;28;20453;-68
2023/07/03 01:06:29;;;;;;;;;;;;;;;8.71;48.82;95118.38;4982284;28;19997;-68
2023/07/03 01:08:56;;;;;;;;;;;;;;;8.29;49.81;95108.06;5000382;28;19933;-67
2023/07/03 01:11:21;;;;;;;;;;;;;;;7.81;51.13;95117.94;4981748;28;19947;-66
2023/07/03 01:13:46;;;;;;;;;;;;;;;7.69;51.95;95118.31;4982633;28;20321;-66
2023/07/03 01:16:12;;;;;;;;;;;;;;;7.77;51.97;95120.94;5000355;28;20015;-68
2023/07/03 01:18:37;;;;;;;;;;;;;;;7.75;51.39;95122.91;5001390;28;19965;-68
2023/07/03 01:21:19;;;;;;;;;;;;;;;7.79;51.28;95103.03;4984640;28;19927;-67
2023/07/03 01:23:46;;;;;;;;;;;;;;;7.85;51.28;95104.16;4984203;28;19997;-67
2023/07/03 01:26:11;;;;;;;;;;;;;;;7.68;51.37;95119.28;4984588;28;19925;-67
2023/07/03 01:28:36;;;;;;;;;;;;;;;7.65;51.68;95111.69;5000859;28;19933;-67
2023/07/03 01:31:05;;;;;;;;;;;;;;;7.65;52.06;95114.34;4986464;28;19955;-67
2023/07/03 01:33:33;;;;;;;;;;;;;;;7.31;52.89;95118.09;5003127;28;19932;-67
2023/07/03 01:35:58;;;;;;;;;;;;;;;7.09;53.78;95115.16;4986792;28;19960;-67
2023/07/03 01:38:24;;;;;;;;;;;;;;;7.26;53.37;95115.94;4986150;28;19932;-68
2023/07/03 01:40:49;;;;;;;;;;;;;;;7.05;53.91;95108.53;4985653;28;19937;-67
2023/07/03 01:43:14;;;;;;;;;;;;;;;6.73;54.43;95111.88;4983744;28;19962;-67
2023/07/03 01:45:46;;;;;;;;;;;;;;;7.01;54.01;95095.63;5003566;28;20489;-67
2023/07/03 01:48:12;;;;;;;;;;;;;;;7.08;53.48;95100.28;4985185;28;20049;-67
2023/07/03 01:50:37;;;;;;;;;;;;;;;7.65;52.52;95093.16;5003315;28;20036;-68
2023/07/03 01:53:04;;;;;;;;;;;;;;;7.86;51.49;95089.09;4984136;28;19976;-68
2023/07/03 01:55:41;;;;;;;;;;;;;;;8.30;50.69;95090.34;5001825;28;20002;-68
2023/07/03 01:58:06;;;;;;;;;;;;;;;8.10;50.87;95087.31;4986243;28;19930;-68
2023/07/03 02:01:04;;;;;;;;;;;;;;;8.15;50.96;95077.81;5001992;28;19959;-67
2023/07/03 02:03:34;;;;;;;;;;;;;;;8.01;50.67;95084.72;4963863;28;20044;-67
2023/07/03 02:06:02;;;;;;;;;;;;;;;7.80;51.98;95090.63;4991366;28;19934;-67
2023/07/03 02:08:27;;;;;;;;;;;;;;;8.19;50.94;95091.53;4992072;28;19957;-68
2023/07/03 02:10:53;;;;;;;;;;;;;;;8.20;50.46;95090.56;4992366;28;20445;-68
2023/07/03 02:13:18;;;;;;;;;;;;;;;7.71;51.75;95100.38;4997364;28;20365;-68
2023/07/03 02:15:43;;;;;;;;;;;;;;;8.04;51.15;95087.00;4988864;28;20381;-68
2023/07/03 02:18:08;;;;;;;;;;;;;;;8.70;49.38;95079.56;4988848;28;19936;-68
2023/07/03 02:20:36;;;;;;;;;;;;;;;8.94;48.66;95089.13;4987518;28;19967;-68
2023/07/03 02:23:01;;;;;;;;;;;;;;;8.54;49.93;95091.16;4984615;28;19962;-68
2023/07/03 02:25:27;;;;;;;;;;;;;;;8.53;49.97;95084.16;4985023;28;19962;-67
2023/07/03 02:27:52;;;;;;;;;;;;;;;8.12;50.96;95096.72;4988927;28;19961;-68
2023/07/03 02:30:17;;;;;;;;;;;;;;;7.66;52.14;95097.44;4989267;28;20012;-67
2023/07/03 02:32:42;;;;;;;;;;;;;;;7.48;52.51;95097.69;4993527;28;19977;-68
2023/07/03 02:35:08;;;;;;;;;;;;;;;7.20;53.33;95100.72;4989404;28;20565;-67
2023/07/03 02:37:33;;;;;;;;;;;;;;;7.22;52.82;95104.03;4996759;28;19933;-67
2023/07/03 02:39:58;;;;;;;;;;;;;;;6.96;53.98;95094.50;4989844;28;19971;-67
2023/07/03 02:42:24;;;;;;;;;;;;;;;6.82;54.48;95093.34;5000157;28;20011;-68
2023/07/03 02:44:49;;;;;;;;;;;;;;;6.77;54.47;95091.22;5000919;28;20448;-67
2023/07/03 02:47:14;;;;;;;;;;;;;;;6.93;54.09;95090.34;4996326;28;19957;-68
2023/07/03 02:49:40;;;;;;;;;;;;;;;7.49;52.25;95084.28;4989695;28;19938;-67
2023/07/03 02:52:06;;;;;;;;;;;;;;;7.68;52.34;95089.31;4988567;28;20050;-67
2023/07/03 02:54:31;;;;;;;;;;;;;;;7.66;51.45;95086.84;4986515;28;20398;-68
2023/07/03 02:56:56;;;;;;;;;;;;;;;7.30;52.61;95101.38;4988680;28;19934;-67
2023/07/03 02:59:22;;;;;;;;;;;;;;;7.50;52.25;95087.72;4987017;28;20013;-67
2023/07/03 03:01:48;;;;;;;;;;;;;;;8.09;50.48;95083.00;4983464;28;19961;-68
2023/07/03 03:04:16;;;;;;;;;;;;;;;8.16;50.13;95089.25;4983281;28;19951;-68
2023/07/03 03:06:42;;;;;;;;;;;;;;;7.78;50.92;95088.13;4986368;28;19957;-68
2023/07/03 03:09:08;;;;;;;;;;;;;;;6.77;53.38;95107.09;4986870;28;19945;-68
2023/07/03 03:11:34;;;;;;;;;;;;;;;6.68;54.10;95102.78;4984112;28;19954;-67
2023/07/03 03:13:59;;;;;;;;;;;;;;;6.63;54.58;95095.34;4986357;28;20458;-67
2023/07/03 03:16:24;;;;;;;;;;;;;;;6.54;54.72;95102.47;4985981;28;19954;-66
2023/07/03 03:18:50;;;;;;;;;;;;;;;6.41;55.12;95100.28;4983960;28;19953;-68
2023/07/03 03:21:15;;;;;;;;;;;;;;;6.36;55.21;95107.91;4996441;28;20186;-67
2023/07/03 03:23:40;;;;;;;;;;;;;;;6.22;56.06;95102.25;4983567;28;20063;-67
2023/07/03 03:26:06;;;;;;;;;;;;;;;6.16;56.00;95099.44;4983809;28;19936;-67
2023/07/03 03:28:32;;;;;;;;;;;;;;;6.49;55.21;95092.38;4983402;28;19963;-68
2023/07/03 03:30:57;;;;;;;;;;;;;;;6.38;55.27;95092.66;4982249;28;19957;-67
2023/07/03 03:33:22;;;;;;;;;;;;;;;6.30;55.69;95090.88;4983723;28;20039;-68
2023/07/03 03:35:47;;;;;;;;;;;;;;;6.71;54.81;95094.53;4988518;28;20412;-67
2023/07/03 03:38:13;;;;;;;;;;;;;;;6.69;54.29;95099.97;4982371;28;20017;-68
2023/07/03 03:40:38;;;;;;;;;;;;;;;6.86;54.18;95099.97;4988803;28;20357;-68
2023/07/03 03:43:04;;;;;;;;;;;;;;;6.62;54.50;95101.63;4994021;28;20215;-67
2023/07/03 03:45:29;;;;;;;;;;;;;;;6.54;54.60;95101.63;4987752;28;19936;-67
2023/07/03 03:47:55;;;;;;;;;;;;;;;6.59;54.58;95107.25;4983069;28;19986;-68
2023/07/03 03:50:20;;;;;;;;;;;;;;;6.55;54.72;95098.00;4983211;28;20287;-67
2023/07/03 03:52:45;;;;;;;;;;;;;;;6.35;55.56;95098.28;4989834;28;20125;-68
2023/07/03 03:55:11;;;;;;;;;;;;;;;6.54;55.04;95086.59;4983937;28;19982;-68
2023/07/03 03:57:36;;;;;;;;;;;;;;;6.63;54.71;95082.94;4982859;28;20426;-67
2023/07/03 04:00:02;;;;;;;;;;;;;;;6.73;54.47;95079.28;4984893;28;19951;-67
2023/07/03 04:02:27;;;;;;;;;;;;;;;7.19;53.31;95081.38;4982353;28;20662;-67
2023/07/03 04:04:52;;;;;;;;;;;;;;;7.06;53.26;95078.41;4983196;28;20043;-67
2023/07/03 04:07:18;;;;;;;;;;;;;;;7.01;53.57;95079.75;4983142;28;20004;-67
2023/07/03 04:09:43;;;;;;;;;;;;;;;6.82;54.17;95078.31;4983488;28;19989;-68
2023/07/03 04:12:08;;;;;;;;;;;;;;;6.53;54.66;95079.63;4983933;28;20482;-68
2023/07/03 04:14:33;;;;;;;;;;;;;;;6.89;54.02;95078.47;4988330;28;19976;-68
2023/07/03 04:17:00;;;;;;;;;;;;;;;7.17;53.32;95087.84;4988222;28;20341;-67
2023/07/03 04:19:27;;;;;;;;;;;;;;;7.71;51.46;95087.13;4989131;28;19963;-68
2023/07/03 04:21:52;;;;;;;;;;;;;;;7.79;51.04;95084.47;4985528;28;19950;-67
2023/07/03 04:24:18;;;;;;;;;;;;;;;8.03;50.77;95087.19;4988619;28;19954;-67
2023/07/03 04:26:43;;;;;;;;;;;;;;;8.57;49.15;95083.66;4986465;28;20048;-67
2023/07/03 04:29:09;;;;;;;;;;;;;;;8.90;48.58;95084.34;4985052;28;20316;-67
2023/07/03 04:31:34;;;;;;;;;;;;;;;9.20;47.83;95087.09;4987319;28;20283;-68
2023/07/03 04:33:59;;;;;;;;;;;;;;;9.05;48.18;95087.88;4987452;28;20218;-68
2023/07/03 04:36:27;;;;;;;;;;;;;;;9.34;47.67;95088.09;4982044;28;20480;-68
2023/07/03 04:38:57;;;;;;;;;;;;;;;9.30;47.46;95094.78;4993406;28;19970;-68
2023/07/03 04:41:23;;;;;;;;;;;;;;;9.56;46.82;95093.50;4987711;28;19948;-68
2023/07/03 04:43:49;;;;;;;;;;;;;;;9.51;46.86;95094.03;4983234;28;19976;-68
2023/07/03 04:46:14;;;;;;;;;;;;;;;10.02;45.70;95097.72;4984385;28;20428;-68
2023/07/03 04:48:39;;;;;;;;;;;;;;;9.27;47.41;95103.09;4989736;28;21059;-68
2023/07/03 04:51:04;;;;;;;;;;;;;;;9.49;47.10;95104.06;4990259;28;19953;-67
2023/07/03 04:53:31;;;;;;;;;;;;;;;10.08;46.04;95102.34;4992491;28;19921;-68
2023/07/03 04:55:56;;;;;;;;;;;;;;;10.17;45.88;95102.22;4992929;28;19917;-67
2023/07/03 04:58:22;;;;;;;;;;;;;;;9.98;46.08;95109.75;4983587;28;19920;-68
2023/07/03 05:00:47;;;;;;;;;;;;;;;10.12;46.13;95112.59;4982791;28;19957;-68
2023/07/03 05:03:12;;;;;;;;;;;;;;;9.97;46.44;95108.13;4980692;28;19934;-68
2023/07/03 05:05:37;;;;;;;;;;;;;;;8.66;50.11;95118.91;4982528;28;20006;-67
2023/07/03 05:08:03;;;;;;;;;;;;;;;8.44;50.42;95096.69;4981339;28;20191;-67
2023/07/03 05:10:29;;;;;;;;;;;;;;;9.20;49.07;95106.50;4984007;28;20377;-68
2023/07/03 05:12:55;;;;;;;;;;;;;;;9.44;48.01;95109.06;4985719;28;20524;-68
2023/07/03 05:15:20;;;;;;;;;;;;;;;8.99;48.82;95115.19;4984585;28;20222;-68
2023/07/03 05:17:49;;;;;;;;;;;;;;;9.28;48.85;95110.91;4984258;28;19976;-68
2023/07/03 05:20:15;;;;;;;;;;;;;;;9.51;47.87;95120.63;4989497;28;19925;-68
2023/07/03 05:22:41;;;;;;;;;;;;;;;9.35;48.98;95126.94;4988706;28;20344;-68
2023/07/03 05:25:07;;;;;;;;;;;;;;;9.50;48.12;95118.97;4985645;28;19922;-68
2023/07/03 05:27:33;;;;;;;;;;;;;;;9.60;47.96;95118.69;4986280;28;20399;-68
2023/07/03 05:29:58;;;;;;;;;;;;;;;9.23;48.68;95126.56;4985656;28;19929;-68
2023/07/03 05:32:23;;;;;;;;;;;;;;;9.18;49.04;95128.94;4985814;28;19957;-68
2023/07/03 05:34:49;;;;;;;;;;;;;;;8.49;51.16;95139.44;4986279;28;19922;-68
2023/07/03 05:37:14;;;;;;;;;;;;;;;9.88;48.55;95125.16;4982574;28;19913;-68
2023/07/03 05:39:39;;;;;;;;;;;;;;;9.30;48.78;95132.81;4990372;28;19954;-68
2023/07/03 05:42:05;;;;;;;;;;;;;;;9.89;47.98;95130.31;4993605;28;19984;-67
2023/07/03 05:44:30;;;;;;;;;;;;;;;9.97;47.85;95138.19;4984150;28;20406;-68
2023/07/03 05:46:55;;;;;;;;;;;;;;;10.33;47.42;95143.72;4979925;28;20058;-67
2023/07/03 05:49:21;;;;;;;;;;;;;;;9.64;48.29;95141.25;4981081;28;19939;-68
2023/07/03 05:51:46;;;;;;;;;;;;;;;9.87;47.87;95150.13;4981849;28;19924;-68
2023/07/03 05:54:11;;;;;;;;;;;;;;;9.90;47.98;95145.28;4985025;28;20123;-68
2023/07/03 05:56:36;;;;;;;;;;;;;;;10.40;47.13;95151.78;4985290;28;19914;-68
2023/07/03 05:59:02;;;;;;;;;;;;;;;9.89;47.87;95148.13;4982055;28;20148;-68
2023/07/03 06:01:27;;;;;;;;;;;;;;;9.98;48.15;95147.00;4982557;28;20400;-68
2023/07/03 06:03:53;;;;;;;;;;;;;;;10.93;45.88;95146.16;4982381;28;19988;-67
2023/07/03 06:06:18;;;;;;;;;;;;;;;9.37;48.86;95150.66;4987459;28;19975;-66
2023/07/03 06:08:44;;;;;;;;;;;;;;;10.65;46.82;95154.09;4987387;28;19917;-65
2023/07/03 06:11:09;;;;;;;;;;;;;;;11.57;44.75;95148.06;4984313;28;19947;-67
2023/07/03 06:13:34;;;;;;;;;;;;;;;10.76;45.87;95156.25;4988264;28;19943;-66
2023/07/03 06:15:59;;;;;;;;;;;;;;;8.36;52.52;95165.72;4983090;28;20474;-66
2023/07/03 06:18:25;;;;;;;;;;;;;;;10.20;48.39;95155.06;4987180;28;19961;-66
2023/07/03 06:20:50;;;;;;;;;;;;;;;11.57;45.05;95158.75;4986627;28;20439;-68
2023/07/03 06:23:15;;;;;;;;;;;;;;;10.81;46.03;95156.50;4980912;28;20341;-68
2023/07/03 06:25:40;;;;;;;;;;;;;;;11.75;43.94;95166.22;4983292;28;20337;-70
2023/07/03 06:28:06;;;;;;;;;;;;;;;12.29;43.05;95150.50;4982474;28;20850;-69
2023/07/03 06:30:31;;;;;;;;;;;;;;;11.93;43.32;95168.38;4982934;28;19918;-67
2023/07/03 06:32:56;;;;;;;;;;;;;;;12.12;43.56;95166.84;4982130;28;20585;-68
2023/07/03 06:35:21;;;;;;;;;;;;;;;11.84;44.14;95164.22;4980602;28;19964;-70
2023/07/03 06:37:47;;;;;;;;;;;;;;;12.61;42.89;95160.66;4978875;28;19992;-68
2023/07/03 06:40:14;;;;;;;;;;;;;;;12.21;44.14;95167.50;4982809;28;20249;-68
2023/07/03 06:42:39;;;;;;;;;;;;;;;12.09;44.13;95167.25;4981336;28;20563;-69
2023/07/03 06:45:05;;;;;;;;;;;;;;;12.50;43.19;95162.03;4985736;28;20416;-68
2023/07/03 06:47:30;;;;;;;;;;;;;;;12.59;43.30;95168.03;4988372;28;19925;-68
2023/07/03 06:49:55;;;;;;;;;;;;;;;12.19;44.49;95182.06;4982667;28;20024;-70
2023/07/03 06:52:20;;;;;;;;;;;;;;;11.73;45.86;95177.09;4985861;28;19949;-68
2023/07/03 06:54:46;;;;;;;;;;;;;;;11.71;46.17;95176.47;4985145;28;19921;-68
2023/07/03 06:57:11;;;;;;;;;;;;;;;11.28;46.63;95185.41;4984095;28;19975;-70
2023/07/03 06:59:37;;;;;;;;;;;;;;;10.32;48.82;95188.16;4986152;28;20318;-68
2023/07/03 07:02:03;;;;;;;;;;;;;;;11.15;46.14;95191.44;4985485;28;19978;-68
2023/07/03 07:04:29;;;;;;;;;;;;;;;11.57;46.07;95194.22;4982367;28;20441;-70
2023/07/03 07:06:55;;;;;;;;;;;;;;;11.10;45.85;95184.03;4985513;28;20085;-68
2023/07/03 07:09:20;;;;;;;;;;;;;;;10.49;47.37;95186.09;4984876;28;20102;-68
2023/07/03 07:11:48;;;;;;;;;;;;;;;10.25;47.70;95186.41;4985388;28;19982;-70
2023/07/03 07:14:14;;;;;;;;;;;;;;;11.26;44.65;95190.91;4985774;28;20385;-71
2023/07/03 07:16:40;;;;;;;;;;;;;;;10.62;45.54;95180.06;4982409;28;20188;-68
2023/07/03 07:19:06;;;;;;;;;;;;;;;11.30;44.56;95175.38;4984851;28;19951;-68
2023/07/03 07:21:31;;;;;;;;;;;;;;;11.80;44.24;95176.31;4985756;28;19952;-69
2023/07/03 07:23:58;;;;;;;;;;;;;;;11.33;45.05;95190.16;4985156;28;19924;-80
2023/07/03 07:26:24;;;;;;;;;;;;;;;11.97;43.39;95182.16;4990640;28;19917;-77
2023/07/03 07:28:49;;;;;;;;;;;;;;;12.59;43.32;95178.72;4993051;28;19932;-69
2023/07/03 07:31:18;;;;;;;;;;;;;;;12.39;43.42;95182.16;4992351;28;20001;-82
2023/07/03 07:33:44;;;;;;;;;;;;;;;11.89;43.50;95194.63;4994492;28;19917;-77
2023/07/03 07:36:12;;;;;;;;;;;;;;;11.09;45.09;95192.22;4995485;28;20328;-79
2023/07/03 07:38:38;;;;;;;;;;;;;;;11.89;43.84;95189.28;4999698;28;20279;-80
2023/07/03 07:41:03;;;;;;;;;;;;;;;12.62;42.29;95183.66;4980824;28;21294;-77
2023/07/03 07:43:29;;;;;;;;;;;;;;;12.70;42.25;95186.13;4994249;28;20427;-80
2023/07/03 07:45:54;;;;;;;;;;;;;;;12.90;42.05;95186.19;4993964;28;19959;-79
2023/07/03 07:48:19;;;;;;;;;;;;;;;12.52;42.82;95194.72;4985839;28;19921;-80
2023/07/03 07:50:44;;;;;;;;;;;;;;;12.71;42.65;95192.31;4979074;28;19959;-81
2023/07/03 07:53:10;;;;;;;;;;;;;;;12.65;42.51;95184.06;4982204;28;20294;-79
2023/07/03 07:55:38;;;;;;;;;;;;;;;12.57;42.96;95178.91;4983517;28;20101;-78
2023/07/03 07:58:03;;;;;;;;;;;;;;;12.74;42.73;95182.03;4987578;28;20009;-81
2023/07/03 08:00:28;;;;;;;;;;;;;;;13.15;41.88;95168.72;4991384;28;19942;-79
2023/07/03 08:02:54;;;;;;;;;;;;;;;13.21;41.54;95175.94;4993615;28;20004;-80
2023/07/03 08:05:19;;;;;;;;;;;;;;;13.54;41.19;95184.97;4986893;28;19924;-77
2023/07/03 08:07:45;;;;;;;;;;;;;;;13.96;40.51;95179.38;4991929;28;19925;-80
2023/07/03 08:10:10;;;;;;;;;;;;;;;12.09;43.93;95187.75;4986129;28;20029;-77
2023/07/03 08:12:35;;;;;;;;;;;;;;;14.20;39.04;95177.00;4992909;28;19925;-80
2023/07/03 08:15:00;;;;;;;;;;;;;;;14.40;38.74;95166.22;4990503;28;20477;-81
2023/07/03 08:17:26;;;;;;;;;;;;;;;14.83;37.62;95163.97;4991828;28;19944;-79
2023/07/03 08:19:51;;;;;;;;;;;;;;;15.04;37.34;95164.63;4994968;28;19917;-79
2023/07/03 08:22:16;;;;;;;;;;;;;;;14.99;36.79;95176.00;4990366;28;19925;-80
2023/07/03 08:24:42;;;;;;;;;;;;;;;14.66;37.61;95180.53;4988247;28;19929;-80
2023/07/03 08:27:07;;;;;;;;;;;;;;;13.61;38.82;95190.31;4974661;28;20157;-79
2023/07/03 08:29:32;;;;;;;;;;;;;;;13.32;39.17;95177.16;4988226;28;20429;-80
2023/07/03 08:31:57;;;;;;;;;;;;;;;13.27;40.81;95180.47;4984325;28;19957;-79
2023/07/03 08:34:22;;;;;;;;;;;;;;;13.84;39.96;95189.88;4988104;28;19999;-78
2023/07/03 08:36:48;;;;;;;;;;;;;;;12.14;42.15;95199.50;4987182;28;20271;-78
2023/07/03 08:39:13;;;;;;;;;;;;;;;12.26;42.89;95196.25;4984072;28;19960;-80
2023/07/03 08:41:40;;;;;;;;;;;;;;;11.98;43.92;95195.28;4996784;28;19972;-81
2023/07/03 08:44:06;;;;;;;;;;;;;;;12.55;42.80;95199.66;4985579;28;20125;-80
2023/07/03 08:46:31;;;;;;;;;;;;;;;12.65;42.96;95189.41;5000087;28;19919;-82
2023/07/03 08:48:57;;;;;;;;;;;;;;;12.96;42.54;95197.91;4997418;28;19902;-81
2023/07/03 08:51:24;;;;;;;;;;;;;;;11.69;44.92;95197.16;4996208;28;19913;-78
2023/07/03 08:53:53;;;;;;;;;;;;;;;12.01;45.18;95199.41;4995034;28;20359;-80
2023/07/03 08:56:22;;;;;;;;;;;;;;;12.22;44.61;95203.84;4980401;28;20420;-81
2023/07/03 08:58:51;;;;;;;;;;;;;;;11.35;45.86;95206.75;4997675;28;19925;-80
2023/07/03 09:01:21;;;;;;;;;;;;;;;11.49;45.60;95205.03;4995521;28;19926;-81
2023/07/03 09:04:08;;;;;;;;;;;;;;;11.73;45.67;95202.94;4978278;28;20483;-78
2023/07/03 09:06:45;;;;;;;;;;;;;;;11.49;46.20;95203.19;4990341;28;20290;-77
2023/07/03 09:09:22;;;;;;;;;;;;;;;10.86;47.58;95212.69;4992234;28;19910;-79
2023/07/03 09:11:49;;;;;;;;;;;;;;;10.35;48.23;95209.06;4984620;28;19917;-78
2023/07/03 09:14:18;;;;;;;;;;;;;;;11.19;47.13;95210.53;4987181;28;19921;-78
2023/07/03 09:16:46;;;;;;;;;;;;;;;11.44;46.68;95205.63;4974999;28;19921;-78
2023/07/03 09:19:16;;;;;;;;;;;;;;;11.87;45.67;95219.84;4977257;28;20333;-81
2023/07/03 09:21:41;;;;;;;;;;;;;;;10.87;47.92;95224.13;4995337;28;20389;-78
2023/07/03 09:24:07;;;;;;;;;;;;;;;11.33;47.58;95209.66;4989490;28;19917;-78
2023/07/03 09:26:40;;;;;;;;;;;;;;;11.15;47.37;95218.06;4989736;28;20521;-73
2023/07/03 09:29:05;;;;;;;;;;;;;;;10.88;48.15;95228.44;4995684;28;19918;-78
2023/07/03 09:31:31;;;;;;;;;;;;;;;11.67;47.37;95228.53;4996266;28;19917;-79
2023/07/03 09:33:56;;;;;;;;;;;;;;;11.62;48.37;95239.78;4997769;28;20811;-80
2023/07/03 09:36:23;;;;;;;;;;;;;;;11.75;47.78;95235.56;4992416;28;19921;-80
2023/07/03 09:38:48;;;;;;;;;;;;;;;11.01;49.28;95238.41;5001670;28;20183;-81
2023/07/03 09:41:13;;;;;;;;;;;;;;;11.72;47.01;95250.13;4992412;28;19964;-80
2023/07/03 09:43:42;;;;;;;;;;;;;;;12.00;46.71;95238.59;5003784;28;19932;-78
2023/07/03 09:46:09;;;;;;;;;;;;;;;12.08;45.74;95236.81;5004220;28;19956;-79
2023/07/03 09:48:35;;;;;;;;;;;;;;;11.97;46.28;95235.50;5002172;28;19917;-80
2023/07/03 09:51:00;;;;;;;;;;;;;;;11.57;46.05;95250.22;4996067;28;20016;-80
2023/07/03 09:53:26;;;;;;;;;;;;;;;11.50;46.92;95260.00;5000229;28;19918;-81
2023/07/03 09:55:55;;;;;;;;;;;;;;;11.60;47.71;95249.81;4999036;28;20144;-80
2023/07/03 09:58:22;;;;;;;;;;;;;;;11.35;48.16;95250.22;4999732;28;19914;-73
2023/07/03 10:00:51;;;;;;;;;;;;;;;11.69;48.40;95257.69;4997555;28;19967;-74
2023/07/03 10:03:23;;;;;;;;;;;;;;;12.79;46.66;95253.56;4988267;28;19934;-80
2023/07/03 10:05:48;;;;;;;;;;;;;;;12.67;46.56;95282.66;5002312;28;19917;-80
2023/07/03 10:08:14;;;;;;;;;;;;;;;11.80;47.10;95261.66;5002450;28;20043;-78
2023/07/03 10:10:39;;;;;;;;;;;;;;;12.25;47.22;95264.00;5001898;28;19976;-78
2023/07/03 10:13:12;;;;;;;;;;;;;;;12.45;48.51;95268.63;5005204;28;20467;-79
2023/07/03 10:15:38;;;;;;;;;;;;;;;13.34;45.50;95260.69;4987972;28;19980;-79
2023/07/03 10:18:05;;;;;;;;;;;;;;;14.08;43.24;95260.66;4998959;28;19913;-77
2023/07/03 10:20:35;;;;;;;;;;;;;;;14.27;41.60;95243.91;4999954;28;20087;-80
2023/07/03 10:23:02;;;;;;;;;;;;;;;14.58;40.24;95245.03;4997635;28;19921;-81
2023/07/03 10:25:28;;;;;;;;;;;;;;;14.19;40.21;95256.53;4999296;28;20086;-77
2023/07/03 10:27:55;;;;;;;;;;;;;;;14.10;40.96;95256.97;4996978;28;20370;-79
2023/07/03 10:30:20;;;;;;;;;;;;;;;14.36;38.20;95252.53;5000211;28;19913;-81
2023/07/03 10:32:48;;;;;;;;;;;;;;;12.93;39.69;95276.59;4984369;28;19930;-79
2023/07/03 10:35:25;;;;;;;;;;;;;;;13.23;39.95;95261.28;4986977;28;19961;-79
2023/07/03 10:37:53;;;;;;;;;;;;;;;13.12;40.11;95252.81;4989300;28;20021;-81
2023/07/03 10:40:23;;;;;;;;;;;;;;;11.95;42.96;95266.88;5001270;28;19917;-79
2023/07/03 10:42:50;;;;;;;;;;;;;;;12.49;41.31;95265.38;5000479;28;20049;-78
2023/07/03 10:45:15;;;;;;;;;;;;;;;12.86;41.23;95261.56;4980661;28;20398;-80
2023/07/03 10:47:49;;;;;;;;;;;;;;;13.36;40.24;95247.91;4989221;28;19988;-77
2023/07/03 10:50:14;;;;;;;;;;;;;;;12.36;39.77;95258.13;4985677;28;19916;-78
2023/07/03 10:53:01;;;;;;;;;;;;;;;12.64;41.29;95256.34;5004095;28;19918;-80
2023/07/03 10:55:45;;;;;;;;;;;;;;;13.42;39.09;95249.78;5002489;28;19917;-80
2023/07/03 10:58:29;;;;;;;;;;;;;;;14.42;38.20;95235.66;4998568;28;20457;-81
2023/07/03 11:00:56;;;;;;;;;;;;;;;14.45;36.92;95236.03;4988955;28;19921;-80
2023/07/03 11:03:25;;;;;;;;;;;;;;;14.27;37.42;95243.91;4982213;28;19969;-77
2023/07/03 11:05:56;;;;;;;;;;;;;;;14.31;37.68;95237.94;4988270;28;19910;-78
2023/07/03 11:08:27;;;;;;;;;;;;;;;15.62;35.90;95235.19;4996584;28;19976;-80
2023/07/03 11:11:14;;;;;;;;;;;;;;;15.44;34.66;95233.22;4994535;28;20393;-81
2023/07/03 11:13:49;;;;;;;;;;;;;;;14.65;35.09;95234.31;4993591;28;20005;-79
2023/07/03 11:16:14;;;;;;;;;;;;;;;14.67;35.55;95234.91;4998589;28;20356;-79
2023/07/03 11:18:58;;;;;;;;;;;;;;;14.45;36.12;95237.91;4986860;28;19932;-78
2023/07/03 11:21:27;;;;;;;;;;;;;;;13.65;37.28;95235.16;4990670;28;19931;-78
2023/07/03 11:23:56;;;;;;;;;;;;;;;13.87;38.04;95231.44;5001513;28;20406;-79
2023/07/03 11:26:33;;;;;;;;;;;;;;;14.06;38.26;95227.09;4983172;28;19972;-76
2023/07/03 11:28:58;;;;;;;;;;;;;;;14.69;36.69;95224.81;4995629;28;20377;-78
2023/07/03 11:31:24;;;;;;;;;;;;;;;14.94;36.77;95229.44;4999167;28;19945;-80
2023/07/03 11:33:51;;;;;;;;;;;;;;;14.90;35.40;95231.75;4999846;28;19918;-79
2023/07/03 11:36:51;;;;;;;;;;;;;;;14.54;35.83;95241.16;4994355;28;19932;-79
2023/07/03 11:39:19;;;;;;;;;;;;;;;15.21;35.03;95218.53;4929968;29;20001;-78
2023/07/03 11:41:55;;;;;;;;;;;;;;;13.78;36.66;95217.44;4977598;28;20442;-80
2023/07/03 11:44:28;;;;;;;;;;;;;;;13.38;36.37;95235.19;4995739;28;20422;-78
2023/07/03 11:46:54;;;;;;;;;;;;;;;12.62;37.92;95234.38;4994897;28;19929;-79
2023/07/03 11:49:22;;;;;;;;;;;;;;;12.46;38.05;95240.88;4996233;28;19956;-78
2023/07/03 11:51:48;;;;;;;;;;;;;;;12.78;37.72;95230.50;4997214;28;19922;-78
2023/07/03 11:54:17;;;;;;;;;;;;;;;13.10;37.63;95232.69;4996139;28;19910;-80
2023/07/03 11:56:44;;;;;;;;;;;;;;;13.77;36.57;95223.84;5000259;28;19986;-77
2023/07/03 11:59:12;;;;;;;;;;;;;;;13.58;36.45;95220.97;4999140;28;19956;-80
2023/07/03 12:01:38;;;;;;;;;;;;;;;13.88;34.89;95236.63;4989546;28;20001;-79
2023/07/03 12:04:04;;;;;;;;;;;;;;;13.97;34.97;95226.50;4996734;28;19925;-80
2023/07/03 12:06:38;;;;;;;;;;;;;;;14.03;34.23;95248.91;4992238;28;20289;-80
2023/07/03 12:09:19;;;;;;;;;;;;;;;13.67;34.98;95233.09;4995685;28;20321;-79
2023/07/03 12:11:59;;;;;;;;;;;;;;;13.75;35.97;95233.91;4989023;28;19917;-81
2023/07/03 12:14:56;;;;;;;;;;;;;;;13.64;35.17;95230.03;4991403;28;19944;-79
2023/07/03 12:17:26;;;;;;;;;;;;;;;14.53;34.45;95223.44;4986065;28;19913;-79
2023/07/03 12:19:55;;;;;;;;;;;;;;;14.63;34.27;95233.69;4998249;28;20000;-78
2023/07/03 12:22:22;;;;;;;;;;;;;;;15.82;34.70;95224.28;4999089;28;19917;-79
2023/07/03 12:24:47;;;;;;;;;;;;;;;15.41;33.00;95221.09;5001024;28;19928;-77
2023/07/03 12:27:14;;;;;;;;;;;;;;;15.84;30.24;95218.69;5001151;28;20197;-79
2023/07/03 12:29:47;;;;;;;;;;;;;;;16.08;30.67;95232.28;4998069;28;20366;-78
2023/07/03 12:32:12;;;;;;;;;;;;;;;16.11;31.17;95242.56;4994291;28;19914;-81
2023/07/03 12:34:38;;;;;;;;;;;;;;;15.40;32.52;95232.03;4992573;28;20345;-82
2023/07/03 12:37:08;;;;;;;;;;;;;;;15.52;32.08;95226.75;4996298;28;19913;-79
2023/07/03 12:39:33;;;;;;;;;;;;;;;15.91;30.88;95227.47;4996876;28;20117;-79
2023/07/03 12:42:08;;;;;;;;;;;;;;;16.90;31.24;95244.53;4992183;28;19921;-80
2023/07/03 12:44:33;;;;;;;;;;;;;;;15.58;31.58;95228.59;4996659;28;19944;-79
2023/07/03 12:47:15;;;;;;;;;;;;;;;14.73;33.55;95239.44;4988637;28;19919;-77
2023/07/03 12:49:58;;;;;;;;;;;;;;;14.97;33.60;95235.22;4999416;28;20305;-79